createdAt,value
2019-03-21T00:00:45.735Z,87.40
2019-03-21T00:03:15.731Z,87.90
2019-03-21T00:05:45.850Z,88.60
2019-03-21T00:08:16.129Z,87.60
2019-03-21T00:11:22.086Z,88.10
2019-03-21T00:13:53.445Z,87.60
2019-03-21T00:16:23.682Z,87.60
2019-03-21T00:18:53.860Z,87.70
2019-03-21T00:21:23.898Z,87.80
2019-03-21T00:23:54.330Z,88.60
2019-03-21T00:26:24.708Z,87.90
2019-03-21T00:28:54.962Z,89.40
2019-03-21T00:31:25.025Z,88.00
2019-03-21T00:33:55.151Z,89.70
2019-03-21T00:36:25.360Z,88.10
2019-03-21T00:38:55.425Z,88.10
2019-03-21T00:41:25.380Z,87.50
2019-03-21T00:43:55.404Z,87.20
2019-03-21T00:46:25.491Z,87.40
2019-03-21T00:48:56.099Z,87.00
2019-03-21T00:51:26.372Z,87.80
2019-03-21T00:53:56.876Z,87.50
2019-03-21T00:56:26.931Z,87.30
2019-03-21T00:58:56.945Z,87.40
2019-03-21T01:01:27.252Z,87.10
2019-03-21T01:03:57.181Z,87.00
2019-03-21T01:06:29.544Z,87.50
2019-03-21T01:08:59.560Z,87.40
2019-03-21T01:11:29.717Z,87.10
2019-03-21T01:14:00.365Z,87.00
2019-03-21T01:16:30.366Z,87.30
2019-03-21T01:19:01.003Z,87.10
2019-03-21T01:21:31.140Z,86.90
2019-03-21T01:24:01.176Z,87.30
2019-03-21T01:26:31.198Z,87.00
2019-03-21T01:29:01.251Z,86.80
2019-03-21T01:31:31.823Z,86.90
2019-03-21T01:34:01.825Z,86.90
2019-03-21T01:36:31.849Z,87.00
2019-03-21T01:39:01.839Z,86.90
2019-03-21T01:41:32.189Z,86.90
2019-03-21T01:44:02.205Z,87.00
2019-03-21T01:46:32.412Z,87.40
2019-03-21T01:49:02.603Z,87.20
2019-03-21T01:51:32.621Z,87.50
2019-03-21T01:54:02.797Z,87.00
2019-03-21T01:56:34.015Z,86.80
2019-03-21T01:59:04.516Z,86.90
2019-03-21T02:01:34.566Z,87.00
2019-03-21T02:04:04.946Z,87.10
2019-03-21T02:06:35.049Z,87.30
2019-03-21T02:09:08.263Z,87.10
2019-03-21T02:11:39.370Z,87.20
2019-03-21T02:14:09.822Z,87.80
2019-03-21T02:16:40.010Z,87.30
2019-03-21T02:19:10.165Z,87.40
2019-03-21T02:21:40.461Z,87.30
2019-03-21T02:24:10.951Z,87.20
2019-03-21T02:26:41.555Z,87.30
2019-03-21T02:29:11.621Z,87.90
2019-03-21T02:31:41.519Z,87.50
2019-03-21T02:34:12.312Z,87.30
2019-03-21T02:36:42.891Z,87.20
2019-03-21T02:39:12.933Z,87.00
2019-03-21T02:41:43.030Z,88.10
2019-03-21T02:44:13.217Z,87.50
2019-03-21T02:46:43.288Z,87.70
2019-03-21T02:49:13.252Z,87.50
2019-03-21T02:51:43.287Z,87.50
2019-03-21T02:54:13.832Z,87.50
2019-03-21T02:56:44.316Z,87.70
2019-03-21T02:59:14.352Z,87.50
2019-03-21T03:04:23.450Z,87.30
2019-03-21T03:06:53.675Z,87.20
2019-03-21T03:09:23.778Z,87.10
2019-03-21T03:11:53.921Z,87.70
2019-03-21T03:14:23.853Z,87.80
2019-03-21T03:16:53.907Z,87.50
2019-03-21T03:19:24.006Z,87.20
2019-03-21T03:21:54.034Z,87.50
2019-03-21T03:24:34.561Z,87.80
2019-03-21T03:27:04.895Z,89.30
2019-03-21T03:29:34.933Z,88.80
2019-03-21T03:32:05.327Z,88.30
2019-03-21T03:34:36.005Z,88.50
2019-03-21T03:37:06.093Z,89.20
2019-03-21T03:39:37.116Z,89.00
2019-03-21T03:42:07.237Z,90.10
2019-03-21T03:44:37.274Z,89.90
2019-03-21T03:47:07.540Z,90.00
2019-03-21T03:49:37.682Z,89.70
2019-03-21T03:52:07.747Z,90.20
2019-03-21T03:54:38.017Z,89.90
2019-03-21T03:57:08.287Z,91.00
2019-03-21T03:59:38.654Z,90.50
2019-03-21T04:02:08.979Z,91.10
2019-03-21T04:04:39.214Z,90.00
2019-03-21T04:07:09.376Z,90.20
2019-03-21T04:09:39.468Z,90.20
2019-03-21T04:12:09.764Z,91.40
2019-03-21T04:14:39.909Z,91.80
2019-03-21T04:17:10.064Z,90.70
2019-03-21T04:19:40.149Z,90.30
2019-03-21T04:22:10.109Z,90.40
2019-03-21T04:24:40.144Z,90.60
2019-03-21T04:27:10.253Z,90.90
2019-03-21T04:29:40.564Z,90.70
2019-03-21T04:32:10.946Z,90.50
2019-03-21T04:34:41.281Z,91.00
2019-03-21T04:37:11.357Z,90.90
2019-03-21T04:39:41.373Z,90.50
2019-03-21T04:42:11.375Z,90.60
2019-03-21T04:44:44.331Z,90.80
2019-03-21T04:47:13.634Z,90.60
2019-03-21T04:49:43.616Z,91.60
2019-03-21T04:52:14.912Z,91.00
2019-03-21T04:54:44.924Z,90.40
2019-03-21T04:57:14.922Z,90.40
2019-03-21T04:59:45.313Z,91.10
2019-03-21T05:02:15.376Z,90.60
2019-03-21T05:04:45.527Z,90.30
2019-03-21T05:07:15.596Z,92.50
2019-03-21T05:09:50.208Z,91.70
2019-03-21T05:12:20.206Z,90.50
2019-03-21T05:14:50.264Z,90.70
2019-03-21T05:17:20.705Z,90.60
2019-03-21T05:19:50.771Z,90.30
2019-03-21T05:22:20.788Z,90.10
2019-03-21T05:24:51.316Z,89.80
2019-03-21T05:27:21.300Z,89.90
2019-03-21T05:29:51.520Z,89.80
2019-03-21T05:32:21.680Z,91.10
2019-03-21T05:34:52.887Z,91.30
2019-03-21T05:37:23.020Z,92.80
2019-03-21T05:39:55.127Z,91.80
2019-03-21T05:42:26.250Z,91.60
2019-03-21T05:44:56.535Z,91.60
2019-03-21T05:47:26.961Z,90.40
2019-03-21T05:49:56.944Z,91.90
2019-03-21T05:52:27.389Z,90.80
2019-03-21T05:54:57.564Z,91.10
2019-03-21T05:57:27.554Z,90.90
2019-03-21T05:59:57.660Z,90.10
2019-03-21T06:02:29.056Z,91.20
2019-03-21T06:04:59.304Z,90.30
2019-03-21T06:07:45.756Z,90.20
2019-03-21T06:10:16.812Z,91.50
2019-03-21T06:12:47.692Z,90.50
2019-03-21T06:15:21.514Z,90.10
2019-03-21T06:18:15.733Z,90.50
2019-03-21T06:21:06.804Z,90.40
2019-03-21T06:24:11.691Z,90.40
2019-03-21T06:26:52.286Z,90.00
2019-03-21T06:29:22.545Z,91.00
2019-03-21T06:31:52.690Z,90.80
2019-03-21T06:34:37.216Z,91.70
2019-03-21T06:37:07.434Z,90.50
2019-03-21T06:39:37.945Z,91.00
2019-03-21T06:42:08.032Z,90.90
2019-03-21T06:44:38.093Z,90.40
2019-03-21T06:47:08.154Z,90.20
2019-03-21T06:49:38.344Z,90.40
2019-03-21T06:52:08.258Z,90.60
2019-03-21T06:54:38.279Z,90.90
2019-03-21T06:57:08.273Z,90.20
2019-03-21T06:59:42.608Z,90.10
2019-03-21T07:02:12.777Z,90.50
2019-03-21T07:04:42.983Z,90.80
2019-03-21T07:07:13.634Z,91.10
2019-03-21T07:09:44.653Z,90.60
2019-03-21T07:12:33.823Z,91.00
2019-03-21T07:15:04.666Z,91.70
2019-03-21T07:17:35.437Z,91.50
2019-03-21T07:20:06.413Z,90.60
2019-03-21T07:22:38.427Z,90.40
2019-03-21T07:25:09.436Z,90.30
2019-03-21T07:27:40.003Z,90.10
2019-03-21T07:30:12.778Z,90.60
2019-03-21T07:32:43.347Z,90.20
2019-03-21T07:35:13.818Z,90.10
2019-03-21T07:37:44.688Z,90.70
2019-03-21T07:40:15.548Z,90.10
2019-03-21T07:42:46.087Z,90.00
2019-03-21T07:45:17.435Z,89.80
2019-03-21T07:48:06.934Z,90.80
2019-03-21T07:50:38.745Z,90.10
2019-03-21T07:53:10.725Z,89.90
2019-03-21T07:55:40.966Z,90.10
2019-03-21T07:58:11.122Z,90.80
2019-03-21T08:00:41.276Z,90.20
2019-03-21T08:03:11.841Z,89.80
2019-03-21T08:05:42.211Z,89.40
2019-03-21T08:08:12.711Z,89.60
2019-03-21T08:10:42.892Z,89.10
2019-03-21T08:13:13.269Z,89.50
2019-03-21T08:15:43.452Z,89.00
2019-03-21T08:18:13.825Z,88.70
2019-03-21T08:20:55.632Z,88.90
2019-03-21T08:23:21.348Z,88.80
2019-03-21T08:25:51.458Z,88.60
2019-03-21T08:28:21.961Z,88.70
2019-03-21T08:31:27.086Z,88.60
2019-03-21T08:33:57.361Z,88.70
2019-03-21T08:36:30.344Z,88.40
2019-03-21T08:39:00.730Z,88.00
2019-03-21T08:41:31.018Z,87.70
2019-03-21T08:44:01.461Z,88.30
2019-03-21T08:46:31.734Z,87.40
2019-03-21T08:49:01.873Z,87.80
2019-03-21T08:51:32.153Z,87.60
2019-03-21T08:54:02.558Z,87.10
2019-03-21T08:56:32.670Z,87.30
2019-03-21T08:59:02.746Z,87.00
2019-03-21T09:01:33.030Z,88.20
2019-03-21T09:04:03.227Z,87.10
2019-03-21T09:06:52.813Z,87.20
2019-03-21T09:09:23.116Z,87.30
2019-03-21T09:11:54.070Z,86.90
2019-03-21T09:14:24.597Z,86.80
2019-03-21T09:16:54.813Z,86.60
2019-03-21T09:19:25.358Z,86.40
2019-03-21T09:21:56.022Z,87.10
2019-03-21T09:24:26.132Z,87.80
2019-03-21T09:26:56.701Z,86.70
2019-03-21T09:29:27.716Z,86.50
2019-03-21T09:31:57.919Z,85.70
2019-03-21T09:34:28.216Z,86.20
2019-03-21T09:36:58.612Z,85.60
2019-03-21T09:39:28.771Z,85.20
2019-03-21T09:41:59.174Z,85.60
2019-03-21T09:44:29.709Z,85.90
2019-03-21T09:47:00.380Z,85.10
2019-03-21T09:49:30.549Z,85.60
2019-03-21T09:52:00.942Z,84.90
2019-03-21T09:54:32.088Z,85.50
2019-03-21T09:57:02.358Z,84.90
2019-03-21T09:59:33.525Z,85.90
2019-03-21T10:02:04.275Z,85.00
2019-03-21T10:04:34.357Z,84.50
2019-03-21T10:07:04.407Z,84.30
2019-03-21T10:09:34.460Z,85.10
2019-03-21T10:12:05.221Z,84.30
2019-03-21T10:14:38.243Z,85.20
2019-03-21T10:17:08.845Z,84.60
2019-03-21T10:19:39.095Z,84.20
2019-03-21T10:22:10.926Z,83.40
2019-03-21T10:24:40.964Z,85.40
2019-03-21T10:27:15.719Z,85.60
2019-03-21T10:29:45.804Z,85.40
2019-03-21T10:32:15.744Z,84.60
2019-03-21T10:34:45.758Z,84.20
2019-03-21T10:37:15.685Z,84.40
2019-03-21T10:39:45.735Z,84.10
2019-03-21T10:42:15.674Z,83.10
2019-03-21T10:44:45.739Z,83.70
2019-03-21T10:47:15.758Z,84.10
2019-03-21T10:49:45.848Z,83.70
2019-03-21T10:52:15.974Z,84.10
2019-03-21T10:54:46.272Z,82.80
2019-03-21T10:57:16.394Z,83.10
2019-03-21T10:59:46.456Z,82.90
2019-03-21T11:02:17.068Z,82.50
2019-03-21T11:04:47.450Z,81.40
2019-03-21T11:07:15.246Z,83.50
2019-03-21T11:09:45.269Z,82.80
2019-03-21T11:12:15.612Z,81.80
2019-03-21T11:14:45.655Z,82.20
2019-03-21T11:17:15.703Z,80.80
2019-03-21T11:19:46.186Z,84.40
2019-03-21T11:22:16.275Z,83.40
2019-03-21T11:24:47.517Z,82.40
2019-03-21T11:27:20.444Z,82.20
2019-03-21T11:29:50.832Z,84.30
2019-03-21T11:32:20.802Z,83.30
2019-03-21T11:34:51.259Z,81.80
2019-03-21T11:37:21.459Z,82.30
2019-03-21T11:39:51.658Z,81.80
2019-03-21T11:42:21.659Z,80.80
2019-03-21T11:44:51.700Z,81.30
2019-03-21T11:47:21.687Z,80.60
2019-03-21T11:49:52.949Z,80.70
2019-03-21T11:52:23.074Z,81.50
2019-03-21T11:54:53.200Z,80.70
2019-03-21T11:57:24.079Z,79.50
2019-03-21T11:59:54.335Z,81.30
2019-03-21T12:02:27.495Z,81.20
2019-03-21T12:04:56.181Z,80.40
2019-03-21T12:07:26.231Z,78.70
2019-03-21T12:09:56.280Z,81.40
2019-03-21T12:12:26.261Z,80.20
2019-03-21T12:14:56.472Z,79.40
2019-03-21T12:17:26.619Z,80.00
2019-03-21T12:19:56.656Z,80.30
2019-03-21T12:22:30.353Z,79.60
2019-03-21T12:24:58.791Z,80.50
2019-03-21T12:27:28.912Z,77.50
2019-03-21T12:29:59.352Z,79.90
2019-03-21T12:32:29.853Z,78.70
2019-03-21T12:35:00.410Z,78.80
2019-03-21T12:37:30.894Z,79.70
2019-03-21T12:40:01.165Z,78.00
2019-03-21T12:42:31.419Z,77.70
2019-03-21T12:45:01.724Z,79.00
2019-03-21T12:47:32.068Z,77.90
2019-03-21T12:50:02.511Z,79.80
2019-03-21T12:55:04.898Z,78.30
2019-03-21T12:57:34.889Z,78.90
2019-03-21T13:00:06.487Z,77.20
2019-03-21T13:02:38.765Z,77.50
2019-03-21T13:05:14.723Z,75.30
2019-03-21T13:07:45.093Z,77.10
2019-03-21T13:10:16.274Z,76.80
2019-03-21T13:12:46.302Z,74.90
2019-03-21T13:15:16.902Z,75.80
2019-03-21T13:17:47.359Z,75.70
2019-03-21T13:20:18.955Z,77.10
2019-03-21T13:23:00.288Z,77.00
2019-03-21T13:25:31.183Z,77.30
2019-03-21T13:28:01.438Z,76.60
2019-03-21T13:30:32.873Z,77.10
2019-03-21T13:33:03.059Z,78.30
2019-03-21T13:35:33.380Z,76.50
2019-03-21T13:38:03.528Z,76.80
2019-03-21T13:40:33.796Z,75.30
2019-03-21T13:43:07.129Z,76.40
2019-03-21T13:45:37.351Z,74.00
2019-03-21T13:48:07.585Z,76.00
2019-03-21T13:50:37.787Z,75.50
2019-03-21T13:56:49.115Z,74.60
2019-03-21T13:59:19.025Z,74.10
2019-03-21T14:01:49.515Z,75.00
2019-03-21T14:04:19.914Z,76.90
2019-03-21T14:06:49.992Z,76.90
2019-03-21T14:09:22.872Z,75.20
2019-03-21T14:11:53.561Z,74.60
2019-03-21T14:14:23.974Z,74.80
2019-03-21T14:16:54.036Z,74.60
2019-03-21T14:19:24.659Z,73.70
2019-03-21T14:21:58.956Z,75.50
2019-03-21T14:24:36.186Z,74.00
2019-03-21T14:27:06.695Z,72.90
2019-03-21T14:29:36.873Z,77.60
2019-03-21T14:32:06.991Z,76.60
2019-03-21T14:34:37.136Z,74.40
2019-03-21T14:37:07.461Z,76.70
2019-03-21T14:39:37.577Z,73.10
2019-03-21T14:42:07.816Z,76.50
2019-03-21T14:44:37.966Z,75.30
2019-03-21T14:47:08.162Z,76.70
2019-03-21T14:49:38.309Z,75.80
2019-03-21T14:52:09.675Z,75.20
2019-03-21T14:54:39.760Z,74.70
2019-03-21T14:57:10.249Z,75.30
2019-03-21T14:59:40.382Z,74.70
2019-03-21T15:02:10.703Z,73.90
2019-03-21T15:04:40.840Z,74.00
2019-03-21T15:07:11.035Z,73.80
2019-03-21T15:09:41.273Z,76.00
2019-03-21T15:12:11.708Z,75.40
2019-03-21T15:14:41.889Z,75.10
2019-03-21T15:17:12.351Z,75.40
2019-03-21T15:19:43.038Z,73.40
2019-03-21T15:22:13.195Z,74.60
2019-03-21T15:24:43.429Z,72.30
2019-03-21T15:27:13.637Z,74.40
2019-03-21T15:29:43.820Z,75.90
2019-03-21T15:32:14.072Z,76.80
2019-03-21T15:34:44.309Z,78.80
2019-03-21T15:37:14.996Z,76.00
2019-03-21T15:39:45.141Z,78.00
2019-03-21T15:42:15.309Z,81.40
2019-03-21T15:44:45.637Z,78.80
2019-03-21T15:47:15.827Z,78.80
2019-03-21T15:49:46.051Z,80.80
2019-03-21T15:52:16.129Z,80.20
2019-03-21T15:54:46.630Z,78.40
2019-03-21T15:57:16.881Z,79.10
2019-03-21T15:59:47.306Z,78.90
2019-03-21T16:02:17.304Z,79.30
2019-03-21T16:04:47.320Z,79.30
2019-03-21T16:07:17.297Z,79.30
2019-03-21T16:09:47.667Z,80.30
2019-03-21T16:12:17.650Z,78.90
2019-03-21T16:14:49.344Z,81.00
2019-03-21T16:17:21.057Z,81.30
2019-03-21T16:19:51.113Z,81.50
2019-03-21T16:22:21.043Z,79.00
2019-03-21T16:24:51.559Z,80.00
2019-03-21T16:27:21.940Z,79.50
2019-03-21T16:29:51.968Z,80.20
2019-03-21T16:32:21.898Z,79.50
2019-03-21T16:34:52.326Z,79.60
2019-03-21T16:37:22.519Z,81.90
2019-03-21T16:39:52.597Z,81.00
2019-03-21T16:42:22.633Z,80.50
2019-03-21T16:44:52.638Z,79.10
2019-03-21T16:47:22.722Z,77.70
2019-03-21T16:49:53.111Z,81.30
2019-03-21T16:52:23.117Z,82.10
2019-03-21T16:54:53.407Z,82.40
2019-03-21T16:57:23.431Z,80.10
2019-03-21T17:00:02.325Z,80.30
2019-03-21T17:02:32.428Z,83.10
2019-03-21T17:05:02.600Z,82.90
2019-03-21T17:07:32.623Z,81.80
2019-03-21T17:10:02.666Z,80.70
2019-03-21T17:12:32.686Z,80.40
2019-03-21T17:15:03.132Z,82.30
2019-03-21T17:17:33.156Z,82.50
2019-03-21T17:20:03.863Z,83.30
2019-03-21T17:22:34.530Z,82.80
2019-03-21T17:25:04.928Z,83.10
2019-03-21T17:27:35.191Z,82.50
2019-03-21T17:30:06.819Z,82.90
2019-03-21T17:32:36.975Z,83.50
2019-03-21T17:35:07.625Z,82.40
2019-03-21T17:37:37.770Z,80.80
2019-03-21T17:40:11.015Z,81.60
2019-03-21T17:42:41.215Z,83.20
2019-03-21T17:45:13.669Z,82.90
2019-03-21T17:47:43.968Z,83.40
2019-03-21T17:50:14.600Z,83.30
2019-03-21T17:52:44.856Z,82.70
2019-03-21T17:55:15.431Z,85.00
2019-03-21T17:57:45.619Z,85.70
2019-03-21T18:00:17.340Z,86.10
2019-03-21T18:02:47.762Z,85.70
2019-03-21T18:05:21.447Z,86.50
2019-03-21T18:07:51.499Z,86.70
2019-03-21T18:10:26.509Z,85.60
2019-03-21T18:12:56.647Z,85.70
2019-03-21T18:15:27.170Z,84.40
2019-03-21T18:17:57.312Z,82.90
2019-03-21T18:20:31.447Z,85.20
2019-03-21T18:23:02.333Z,85.80
2019-03-21T18:25:40.381Z,86.30
2019-03-21T18:28:10.525Z,86.50
2019-03-21T18:30:41.250Z,86.90
2019-03-21T18:33:11.613Z,84.20
2019-03-21T18:35:42.817Z,85.70
2019-03-21T18:38:19.337Z,86.90
2019-03-21T18:40:49.329Z,87.80
2019-03-21T18:43:20.050Z,87.20
2019-03-21T18:45:50.565Z,86.70
2019-03-21T18:48:20.873Z,86.80
2019-03-21T18:50:51.515Z,87.60
2019-03-21T18:53:21.524Z,88.90
2019-03-21T18:55:51.643Z,86.20
2019-03-21T18:58:22.049Z,84.30
2019-03-21T19:00:53.598Z,87.00
2019-03-21T19:03:23.659Z,89.10
2019-03-21T19:05:54.047Z,87.30
2019-03-21T19:08:26.289Z,88.20
2019-03-21T19:10:59.878Z,85.90
2019-03-21T19:13:30.897Z,87.60
2019-03-21T19:16:01.113Z,87.20
2019-03-21T19:18:32.749Z,88.70
2019-03-21T19:21:03.308Z,87.70
2019-03-21T19:23:33.370Z,86.30
2019-03-21T19:26:03.953Z,88.60
2019-03-21T19:28:35.060Z,88.80
2019-03-21T19:31:08.458Z,88.70
2019-03-21T19:33:38.826Z,88.60
2019-03-21T19:36:09.140Z,89.20
2019-03-21T19:38:39.132Z,88.80
2019-03-21T19:41:09.546Z,87.00
2019-03-21T19:43:40.139Z,88.10
2019-03-21T19:46:10.346Z,88.80
2019-03-21T19:48:49.802Z,87.70
2019-03-21T19:51:13.564Z,88.20
2019-03-21T19:53:44.434Z,87.70
2019-03-21T19:56:14.647Z,87.80
2019-03-21T19:58:44.676Z,87.70
2019-03-21T20:01:15.248Z,89.20
2019-03-21T20:03:45.221Z,88.70
2019-03-21T20:06:15.333Z,89.00
2019-03-21T20:08:46.544Z,87.50
2019-03-21T20:11:17.167Z,87.50
2019-03-21T20:13:47.495Z,88.50
2019-03-21T20:16:17.594Z,87.50
2019-03-21T20:18:50.157Z,88.50
2019-03-21T20:21:21.052Z,89.80
2019-03-21T20:23:51.470Z,87.80
2019-03-21T20:26:27.761Z,87.50
2019-03-21T20:28:58.301Z,87.90
2019-03-21T20:31:28.809Z,86.50
2019-03-21T20:33:59.456Z,87.90
2019-03-21T20:36:30.118Z,87.60
2019-03-21T20:39:00.325Z,87.30
2019-03-21T20:41:33.197Z,87.30
2019-03-21T20:44:15.377Z,90.00
2019-03-21T20:46:43.325Z,90.00
2019-03-21T20:49:16.304Z,89.90
2019-03-21T20:52:02.045Z,90.70
2019-03-21T20:54:34.413Z,89.60
2019-03-21T20:57:05.825Z,88.20
2019-03-21T21:00:03.047Z,88.70
2019-03-21T21:02:43.414Z,90.40
2019-03-21T21:05:15.256Z,90.00
2019-03-21T21:07:46.665Z,88.30
2019-03-21T21:10:27.958Z,88.10
2019-03-21T21:12:58.450Z,87.90
2019-03-21T21:15:28.668Z,86.50
2019-03-21T21:17:59.425Z,85.60
2019-03-21T21:20:29.654Z,86.40
2019-03-21T21:23:11.050Z,85.70
2019-03-21T21:25:45.788Z,86.60
2019-03-21T21:28:17.504Z,88.20
2019-03-21T21:30:47.755Z,86.70
2019-03-21T21:33:18.046Z,85.90
2019-03-21T21:35:54.727Z,88.00
2019-03-21T21:38:25.168Z,86.60
2019-03-21T21:40:55.369Z,85.70
2019-03-21T21:43:25.629Z,84.90
2019-03-21T21:45:55.798Z,84.50
2019-03-21T21:48:25.990Z,84.20
2019-03-21T21:50:56.560Z,84.10
2019-03-21T21:53:26.554Z,84.00
2019-03-21T21:55:57.970Z,84.20
2019-03-21T21:58:28.137Z,83.80
2019-03-21T22:00:58.146Z,83.70
2019-03-21T22:03:28.445Z,83.70
2019-03-21T22:05:58.543Z,84.10
2019-03-21T22:08:29.172Z,84.20
2019-03-21T22:10:59.711Z,84.00
2019-03-21T22:13:33.328Z,84.00
2019-03-21T22:16:03.389Z,84.00
2019-03-21T22:18:33.652Z,84.10
2019-03-21T22:21:03.670Z,84.20
2019-03-21T22:23:34.085Z,84.10
2019-03-21T22:26:04.098Z,84.10
2019-03-21T22:28:34.225Z,84.10
2019-03-21T22:31:04.272Z,83.80
2019-03-21T22:33:34.497Z,83.90
2019-03-21T22:36:18.947Z,84.10
2019-03-21T22:38:49.273Z,84.10
2019-03-21T22:41:19.689Z,84.10
2019-03-21T22:43:49.992Z,84.00
2019-03-21T22:46:20.469Z,84.20
2019-03-21T22:48:50.777Z,84.20
2019-03-21T22:51:21.032Z,84.10
2019-03-21T22:53:51.801Z,84.00
2019-03-21T22:56:21.906Z,84.10
2019-03-21T22:58:52.366Z,84.20
2019-03-21T23:01:22.861Z,84.20
2019-03-21T23:03:53.215Z,84.00
2019-03-21T23:06:23.620Z,84.00
2019-03-21T23:08:54.942Z,84.10
2019-03-21T23:11:25.142Z,84.10
2019-03-21T23:13:55.731Z,84.20
2019-03-21T23:16:26.124Z,84.20
2019-03-21T23:18:56.483Z,84.10
2019-03-21T23:21:26.696Z,84.20
2019-03-21T23:23:56.911Z,83.90
2019-03-21T23:26:31.723Z,83.80
2019-03-21T23:29:01.490Z,84.00
2019-03-21T23:31:31.734Z,84.00
2019-03-21T23:34:02.020Z,83.60
2019-03-21T23:36:32.352Z,83.60
2019-03-21T23:39:02.689Z,83.90
2019-03-21T23:41:33.171Z,84.20
2019-03-21T23:44:03.545Z,84.20
2019-03-21T23:46:36.221Z,84.30
2019-03-21T23:49:05.557Z,84.30
2019-03-21T23:51:35.612Z,84.00
2019-03-21T23:54:05.795Z,84.00
2019-03-21T23:56:35.816Z,84.30
2019-03-21T23:59:05.806Z,84.40
